La Grange, Illinois
Current Conditions -  °F | °C
As of 11:53 PM on Friday 28 Nov 2014 (Local Time) from KMDW Reporting Station
Broken Clouds Broken Clouds  
Wind Chill: 28°   Ceiling: 14000
Heat Index: 35°   Visibility: 10mi
Dew Point: 28°   Wind: 9mph
Humidity: 76%   Direction: 180°S
Pressure: 29.89"   Gusts: NA
Location:  41.81°N, 87.87°W
Report Text: KMDW 290553Z 18008KT 10SM BKN140 02/M02 A2989 RMK AO2 SLP133 T00171022 10022 20011 400221067 56016 $
Loading
Personal Weather Stations






























Interactive Weather Map New forecast layout! Learn more

10-Day Weather Forecast

Advertisements
Track Severe Weather on mobile